Time;durP1;ratioP1;P1;durP2;ratioP2;P2;SDS_P1;SDS_P2;PMS_P1;PMS_P2;Temp;Humidity;BMP_temperature;BMP_pressure;BME280_temperature;BME280_humidity;BME280_pressure;Samples;Min_cycle;Max_cycle;Signal;HPM_P1;HPM_P2
2024/04/23 00:09:31;;;;;;;;;;;2.30;99.90;;;;;;6634389;88;20687;-77
2024/04/23 00:19:32;;;;;;;;;;;2.40;99.90;;;;;;6628594;89;20218;-77
2024/04/23 00:29:33;;;;;;;;;;;2.20;99.90;;;;;;6631412;89;20153;-76
2024/04/23 00:39:33;;;;;;;;;;;2.20;99.90;;;;;;6632574;88;20058;-76
2024/04/23 00:49:34;;;;;;;;;;;2.20;99.90;;;;;;6634847;88;20125;-77
2024/04/23 00:59:34;;;;;;;;;;;1.90;99.90;;;;;;6631532;88;20125;-77
2024/04/23 01:09:35;;;;;;;;;;;1.80;99.90;;;;;;6632020;89;20530;-77
2024/04/23 01:19:39;;;;;;;;;;;1.80;99.90;;;;;;6623626;88;20093;-76
2024/04/23 01:29:39;;;;;;;;;;;1.70;99.90;;;;;;6629428;89;20327;-76
2024/04/23 01:39:40;;;;;;;;;;;1.60;99.90;;;;;;6632017;89;20086;-77
2024/04/23 01:49:41;;;;;;;;;;;1.40;99.90;;;;;;6634002;88;20228;-77
2024/04/23 01:59:49;;;;;;;;;;;1.40;99.90;;;;;;6633398;89;20065;-77
2024/04/23 02:09:50;;;;;;;;;;;1.10;99.90;;;;;;6633938;88;20090;-77
2024/04/23 02:19:50;;;;;;;;;;;1.10;99.90;;;;;;6633164;88;20054;-77
2024/04/23 02:29:51;;;;;;;;;;;1.10;99.90;;;;;;6633077;88;20662;-77
2024/04/23 02:39:51;;;;;;;;;;;1.00;99.90;;;;;;6632263;89;20145;-76
2024/04/23 02:49:52;;;;;;;;;;;1.00;99.90;;;;;;6632684;89;20642;-77
2024/04/23 02:59:52;;;;;;;;;;;0.90;99.90;;;;;;6641546;88;20088;-77
2024/04/23 03:09:52;;;;;;;;;;;1.00;99.90;;;;;;6645833;88;20083;-77
2024/04/23 03:19:53;;;;;;;;;;;0.80;99.90;;;;;;6648932;88;20067;-77
2024/04/23 03:29:53;;;;;;;;;;;0.70;99.90;;;;;;6654367;88;20074;-77
2024/04/23 03:39:54;;;;;;;;;;;0.60;99.90;;;;;;6648235;89;20067;-77
2024/04/23 03:49:54;;;;;;;;;;;0.60;99.90;;;;;;6636530;89;20831;-77
2024/04/23 03:59:55;;;;;;;;;;;0.40;99.90;;;;;;6638128;89;20079;-78
2024/04/23 04:09:55;;;;;;;;;;;0.30;99.90;;;;;;6637300;88;20502;-77
2024/04/23 04:19:56;;;;;;;;;;;0.40;99.90;;;;;;6638253;89;20178;-77
2024/04/23 04:29:56;;;;;;;;;;;0.30;99.90;;;;;;6636670;88;20546;-78
2024/04/23 04:39:56;;;;;;;;;;;0.10;99.90;;;;;;6636641;89;20831;-77
2024/04/23 04:49:57;;;;;;;;;;;0.00;99.90;;;;;;6634598;88;20070;-77
2024/04/23 04:59:57;;;;;;;;;;;0.30;99.90;;;;;;6637401;89;20088;-77
2024/04/23 05:09:58;;;;;;;;;;;0.10;99.90;;;;;;6638886;88;20529;-77
2024/04/23 05:19:59;;;;;;;;;;;0.10;99.90;;;;;;6638050;88;20152;-77
2024/04/23 05:29:59;;;;;;;;;;;0.00;99.90;;;;;;6637297;88;20058;-77
2024/04/23 05:40:00;;;;;;;;;;;0.10;99.90;;;;;;6642677;89;20054;-78
2024/04/23 05:50:19;;;;;;;;;;;0.30;99.90;;;;;;6649876;88;20062;-78
2024/04/23 06:00:20;;;;;;;;;;;0.30;99.90;;;;;;6652407;77;20095;-77
2024/04/23 06:10:20;;;;;;;;;;;0.50;99.90;;;;;;6669539;88;20138;-77
2024/04/23 06:20:21;;;;;;;;;;;1.00;99.90;;;;;;6657399;88;20075;-77
2024/04/23 06:30:21;;;;;;;;;;;1.00;99.90;;;;;;6651134;88;20173;-76
2024/04/23 06:40:22;;;;;;;;;;;1.50;99.90;;;;;;6664435;88;20424;-76
2024/04/23 06:50:22;;;;;;;;;;;1.90;99.90;;;;;;6649968;88;20089;-77
2024/04/23 07:00:23;;;;;;;;;;;2.60;99.90;;;;;;6677055;88;20494;-77
2024/04/23 07:10:23;;;;;;;;;;;3.30;99.90;;;;;;6633847;88;20658;-76
2024/04/23 07:20:24;;;;;;;;;;;4.30;99.90;;;;;;6665366;88;20097;-76
2024/04/23 07:30:26;;;;;;;;;;;4.90;99.90;;;;;;6666053;88;20100;-76
2024/04/23 07:40:26;;;;;;;;;;;5.70;99.90;;;;;;6659455;88;20063;-76
2024/04/23 07:50:27;;;;;;;;;;;6.50;99.90;;;;;;6656618;88;20092;-76
2024/04/23 08:00:30;;;;;;;;;;;7.30;99.90;;;;;;6646249;88;20081;-76
2024/04/23 08:10:31;;;;;;;;;;;7.80;99.90;;;;;;6643021;88;20200;-76
2024/04/23 08:20:31;;;;;;;;;;;8.40;99.90;;;;;;6660635;88;20251;-76
2024/04/23 08:30:32;;;;;;;;;;;8.60;99.90;;;;;;6661446;88;20511;-76
2024/04/23 08:40:34;;;;;;;;;;;9.80;99.90;;;;;;6629049;88;20058;-77
2024/04/23 08:50:35;;;;;;;;;;;10.80;99.90;;;;;;6664055;88;20058;-77
2024/04/23 09:00:38;;;;;;;;;;;11.40;99.90;;;;;;6641134;88;20498;-77
2024/04/23 09:10:40;;;;;;;;;;;12.70;99.90;;;;;;6638175;88;20208;-77
2024/04/23 09:20:40;;;;;;;;;;;12.80;98.60;;;;;;6650040;88;20503;-77
2024/04/23 09:30:41;;;;;;;;;;;13.80;95.60;;;;;;6674389;88;20082;-77
2024/04/23 09:40:41;;;;;;;;;;;14.10;94.70;;;;;;6656044;88;20517;-77
2024/04/23 09:50:42;;;;;;;;;;;15.00;91.10;;;;;;6640923;88;20067;-77
2024/04/23 10:00:43;;;;;;;;;;;14.90;92.80;;;;;;6681166;88;20093;-76
2024/04/23 10:10:51;;;;;;;;;;;15.40;91.90;;;;;;6660426;88;20214;-77
2024/04/23 10:20:52;;;;;;;;;;;16.00;89.10;;;;;;6668847;88;20078;-77
2024/04/23 10:30:53;;;;;;;;;;;15.40;87.30;;;;;;6664028;88;20066;-77
2024/04/23 10:40:54;;;;;;;;;;;16.40;84.50;;;;;;6654989;88;20615;-76
2024/04/23 10:50:58;;;;;;;;;;;16.90;84.60;;;;;;6652168;88;20701;-76
2024/04/23 11:00:59;;;;;;;;;;;16.60;81.20;;;;;;6646251;88;20078;-76
2024/04/23 11:11:07;;;;;;;;;;;17.10;83.10;;;;;;6644100;88;20071;-76
2024/04/23 11:21:08;;;;;;;;;;;17.20;78.40;;;;;;6651080;88;20076;-77
2024/04/23 11:31:09;;;;;;;;;;;18.40;77.30;;;;;;6670347;88;20090;-77
2024/04/23 11:41:19;;;;;;;;;;;18.10;75.10;;;;;;6643049;88;20059;-77
2024/04/23 11:51:19;;;;;;;;;;;19.50;77.50;;;;;;6652872;88;20261;-78
2024/04/23 12:01:20;;;;;;;;;;;18.80;75.00;;;;;;6666038;88;20457;-78
2024/04/23 12:11:20;;;;;;;;;;;18.70;73.80;;;;;;6651480;88;20109;-77
2024/04/23 12:21:23;;;;;;;;;;;19.20;69.90;;;;;;6631447;88;20051;-78
2024/04/23 12:31:24;;;;;;;;;;;18.80;67.10;;;;;;6666347;88;20584;-79
2024/04/23 12:41:27;;;;;;;;;;;19.50;69.70;;;;;;6628900;88;20058;-77
2024/04/23 12:51:28;;;;;;;;;;;19.50;67.60;;;;;;6647083;88;20211;-79
2024/04/23 13:01:28;;;;;;;;;;;20.40;67.10;;;;;;6633220;88;20066;-78
2024/04/23 13:11:29;;;;;;;;;;;18.20;67.40;;;;;;6674694;88;20066;-77
2024/04/23 13:21:29;;;;;;;;;;;15.20;72.90;;;;;;6692196;88;20569;-77
2024/04/23 13:31:30;;;;;;;;;;;14.50;76.80;;;;;;6680435;88;20070;-77
2024/04/23 13:41:30;;;;;;;;;;;14.00;76.10;;;;;;6645283;88;20130;-77
2024/04/23 13:51:30;;;;;;;;;;;12.90;75.00;;;;;;6639378;88;20068;-77
2024/04/23 14:01:31;;;;;;;;;;;13.10;78.00;;;;;;6650046;88;20050;-77
2024/04/23 14:11:31;;;;;;;;;;;12.80;80.90;;;;;;6662465;88;20137;-77
2024/04/23 14:21:32;;;;;;;;;;;14.30;75.90;;;;;;6674295;88;20225;-78
2024/04/23 14:31:34;;;;;;;;;;;14.20;75.30;;;;;;6667973;88;20214;-77
2024/04/23 14:41:35;;;;;;;;;;;13.60;78.00;;;;;;6668325;88;20512;-77
2024/04/23 14:51:35;;;;;;;;;;;15.00;75.30;;;;;;6669876;88;20163;-77
2024/04/23 15:01:36;;;;;;;;;;;14.50;75.00;;;;;;6625047;88;20201;-76
2024/04/23 15:11:37;;;;;;;;;;;13.10;77.50;;;;;;6628759;88;20188;-77
2024/04/23 15:21:37;;;;;;;;;;;12.90;79.00;;;;;;6629883;88;20067;-76
2024/04/23 15:31:38;;;;;;;;;;;12.70;79.20;;;;;;6632845;88;20085;-77
2024/04/23 15:41:38;;;;;;;;;;;13.80;80.70;;;;;;6629115;88;20540;-75
2024/04/23 15:51:39;;;;;;;;;;;12.80;81.80;;;;;;6635585;88;20114;-76
2024/04/23 16:01:39;;;;;;;;;;;12.30;82.50;;;;;;6629040;88;20078;-77
2024/04/23 16:11:41;;;;;;;;;;;12.30;82.50;;;;;;6624945;88;20103;-76
2024/04/23 16:21:41;;;;;;;;;;;12.60;83.10;;;;;;6635435;88;20178;-77
2024/04/23 16:31:41;;;;;;;;;;;12.60;84.00;;;;;;6637265;88;20065;-77
2024/04/23 16:41:42;;;;;;;;;;;12.00;83.40;;;;;;6630038;88;20055;-78
2024/04/23 16:51:42;;;;;;;;;;;12.40;84.20;;;;;;6622678;88;20083;-76
2024/04/23 17:01:43;;;;;;;;;;;12.30;81.40;;;;;;6630403;88;20224;-77
2024/04/23 17:11:43;;;;;;;;;;;10.90;84.50;;;;;;6651715;88;20631;-77
2024/04/23 17:21:44;;;;;;;;;;;10.70;84.10;;;;;;6643236;88;20189;-77
2024/04/23 17:31:44;;;;;;;;;;;10.60;86.00;;;;;;6631119;88;20213;-76
2024/04/23 17:41:45;;;;;;;;;;;10.50;85.70;;;;;;6630494;88;20653;-76
2024/04/23 17:51:45;;;;;;;;;;;10.20;86.40;;;;;;6631642;78;20107;-77
2024/04/23 18:01:46;;;;;;;;;;;10.00;88.40;;;;;;6623344;88;20538;-78
2024/04/23 18:11:46;;;;;;;;;;;9.90;87.40;;;;;;6603433;89;20092;-78
2024/04/23 18:21:46;;;;;;;;;;;9.70;87.70;;;;;;6608675;88;20839;-78
2024/04/23 18:31:47;;;;;;;;;;;9.40;88.50;;;;;;6613586;89;20084;-78
2024/04/23 18:41:47;;;;;;;;;;;9.30;89.60;;;;;;6619276;89;20138;-78
2024/04/23 18:51:48;;;;;;;;;;;9.00;90.30;;;;;;6625649;88;20053;-78
2024/04/23 19:01:48;;;;;;;;;;;8.70;91.10;;;;;;6601722;88;20552;-78
2024/04/23 19:11:49;;;;;;;;;;;8.40;91.40;;;;;;6633186;89;20073;-80
2024/04/23 19:21:50;;;;;;;;;;;8.00;92.40;;;;;;6627849;89;20063;-80
2024/04/23 19:31:50;;;;;;;;;;;7.70;93.40;;;;;;6621496;88;20083;-79
2024/04/23 19:41:51;;;;;;;;;;;7.40;94.10;;;;;;6614808;88;20070;-79
2024/04/23 19:51:51;;;;;;;;;;;7.30;94.80;;;;;;6634645;88;20069;-79
2024/04/23 20:01:52;;;;;;;;;;;7.20;95.80;;;;;;6640373;88;20047;-80
2024/04/23 20:11:52;;;;;;;;;;;7.10;96.70;;;;;;6625272;88;20571;-79
2024/04/23 20:21:53;;;;;;;;;;;6.90;98.50;;;;;;6606874;90;20062;-80
2024/04/23 20:31:54;;;;;;;;;;;6.70;99.80;;;;;;6622041;89;20066;-79
2024/04/23 20:41:54;;;;;;;;;;;6.80;99.30;;;;;;6606864;90;20059;-79
2024/04/23 20:51:55;;;;;;;;;;;6.90;99.00;;;;;;6647285;88;20064;-78
2024/04/23 21:01:55;;;;;;;;;;;6.90;98.10;;;;;;6697220;88;20036;-79
2024/04/23 21:11:55;;;;;;;;;;;6.80;98.50;;;;;;6698970;88;20083;-80
2024/04/23 21:21:56;;;;;;;;;;;6.80;98.70;;;;;;6692732;88;20183;-78
2024/04/23 21:32:00;;;;;;;;;;;6.80;99.10;;;;;;6691222;88;20087;-78
2024/04/23 21:42:00;;;;;;;;;;;6.60;99.90;;;;;;6690787;88;20063;-78
2024/04/23 21:52:01;;;;;;;;;;;6.80;99.90;;;;;;6695389;88;20081;-79
2024/04/23 22:02:01;;;;;;;;;;;6.90;99.90;;;;;;6706407;88;20096;-78
2024/04/23 22:12:02;;;;;;;;;;;6.80;99.90;;;;;;6693558;88;20078;-78
2024/04/23 22:22:02;;;;;;;;;;;6.60;99.90;;;;;;6693130;88;20139;-78
2024/04/23 22:32:03;;;;;;;;;;;6.50;99.90;;;;;;6688639;88;20074;-77
2024/04/23 22:42:04;;;;;;;;;;;6.60;99.90;;;;;;6690433;88;20624;-79
2024/04/23 22:52:04;;;;;;;;;;;6.60;99.90;;;;;;6688960;88;20133;-77
2024/04/23 23:02:04;;;;;;;;;;;6.70;99.90;;;;;;6691526;88;20556;-80
2024/04/23 23:12:05;;;;;;;;;;;6.80;99.90;;;;;;6688267;88;20088;-78
2024/04/23 23:22:05;;;;;;;;;;;6.80;99.90;;;;;;6692023;88;20073;-78
2024/04/23 23:32:06;;;;;;;;;;;6.80;99.90;;;;;;6692425;88;20506;-78
2024/04/23 23:42:06;;;;;;;;;;;6.50;99.90;;;;;;6692979;88;20059;-79
2024/04/23 23:52:07;;;;;;;;;;;6.60;99.90;;;;;;6701625;88;20817;-79
